sensor_id;sensor_type;location;lat;lon;timestamp;temperature;humidity
52321;DHT22;38261;54.090;13.382;2022-12-29T00:00:42;7.80;99.90
52321;DHT22;38261;54.090;13.382;2022-12-29T00:02:05;7.80;99.90
52321;DHT22;38261;54.090;13.382;2022-12-29T00:03:27;7.80;99.90
52321;DHT22;38261;54.090;13.382;2022-12-29T00:04:50;7.80;99.90
52321;DHT22;38261;54.090;13.382;2022-12-29T00:06:13;7.80;99.90
52321;DHT22;38261;54.090;13.382;2022-12-29T00:07:35;7.80;99.90
52321;DHT22;38261;54.090;13.382;2022-12-29T00:08:57;7.80;99.90
52321;DHT22;38261;54.090;13.382;2022-12-29T00:10:19;7.80;99.90
52321;DHT22;38261;54.090;13.382;2022-12-29T00:11:41;7.80;99.90
52321;DHT22;38261;54.090;13.382;2022-12-29T00:13:04;7.80;99.90
52321;DHT22;38261;54.090;13.382;2022-12-29T00:14:44;7.80;99.90
52321;DHT22;38261;54.090;13.382;2022-12-29T00:16:25;7.80;99.90
52321;DHT22;38261;54.090;13.382;2022-12-29T00:17:48;7.80;99.90
52321;DHT22;38261;54.090;13.382;2022-12-29T00:19:11;7.80;99.90
52321;DHT22;38261;54.090;13.382;2022-12-29T00:22:18;7.80;99.90
52321;DHT22;38261;54.090;13.382;2022-12-29T00:23:59;7.80;99.90
52321;DHT22;38261;54.090;13.382;2022-12-29T00:25:40;7.80;99.90
52321;DHT22;38261;54.090;13.382;2022-12-29T00:27:21;7.80;99.90
52321;DHT22;38261;54.090;13.382;2022-12-29T00:29:02;7.80;99.90
52321;DHT22;38261;54.090;13.382;2022-12-29T00:30:43;7.80;99.90
52321;DHT22;38261;54.090;13.382;2022-12-29T00:32:24;7.80;99.90
52321;DHT22;38261;54.090;13.382;2022-12-29T00:34:09;7.80;99.90
52321;DHT22;38261;54.090;13.382;2022-12-29T00:35:53;7.80;99.90
52321;DHT22;38261;54.090;13.382;2022-12-29T00:37:17;7.80;99.90
52321;DHT22;38261;54.090;13.382;2022-12-29T00:39:07;7.80;99.90
52321;DHT22;38261;54.090;13.382;2022-12-29T00:40:49;7.80;99.90
52321;DHT22;38261;54.090;13.382;2022-12-29T00:42:30;7.80;99.90
52321;DHT22;38261;54.090;13.382;2022-12-29T00:44:24;7.80;99.90
52321;DHT22;38261;54.090;13.382;2022-12-29T00:45:47;7.80;99.90
52321;DHT22;38261;54.090;13.382;2022-12-29T00:47:09;7.80;99.90
52321;DHT22;38261;54.090;13.382;2022-12-29T00:48:31;7.80;99.90
52321;DHT22;38261;54.090;13.382;2022-12-29T00:50:12;7.80;99.90
52321;DHT22;38261;54.090;13.382;2022-12-29T00:51:34;7.70;99.90
52321;DHT22;38261;54.090;13.382;2022-12-29T00:52:56;7.70;99.90
52321;DHT22;38261;54.090;13.382;2022-12-29T00:54:18;7.70;99.90
52321;DHT22;38261;54.090;13.382;2022-12-29T00:55:41;7.70;99.90
52321;DHT22;38261;54.090;13.382;2022-12-29T00:57:05;7.70;99.90
52321;DHT22;38261;54.090;13.382;2022-12-29T00:58:29;7.70;99.90
52321;DHT22;38261;54.090;13.382;2022-12-29T00:59:51;7.70;99.90
52321;DHT22;38261;54.090;13.382;2022-12-29T01:01:13;7.70;99.90
52321;DHT22;38261;54.090;13.382;2022-12-29T01:02:35;7.70;99.90
52321;DHT22;38261;54.090;13.382;2022-12-29T01:03:58;7.70;99.90
52321;DHT22;38261;54.090;13.382;2022-12-29T01:05:25;7.70;99.90
52321;DHT22;38261;54.090;13.382;2022-12-29T01:06:47;7.70;99.90
52321;DHT22;38261;54.090;13.382;2022-12-29T01:08:10;7.70;99.90
52321;DHT22;38261;54.090;13.382;2022-12-29T01:09:32;7.70;99.90
52321;DHT22;38261;54.090;13.382;2022-12-29T01:11:13;7.70;99.90
52321;DHT22;38261;54.090;13.382;2022-12-29T01:12:35;7.70;99.90
52321;DHT22;38261;54.090;13.382;2022-12-29T01:14:04;7.70;99.90
52321;DHT22;38261;54.090;13.382;2022-12-29T01:15:27;7.70;99.90
52321;DHT22;38261;54.090;13.382;2022-12-29T01:16:49;7.70;99.90
52321;DHT22;38261;54.090;13.382;2022-12-29T01:18:11;7.70;99.90
52321;DHT22;38261;54.090;13.382;2022-12-29T01:19:33;7.70;99.90
52321;DHT22;38261;54.090;13.382;2022-12-29T01:21:00;7.80;99.90
52321;DHT22;38261;54.090;13.382;2022-12-29T01:22:22;7.80;99.90
52321;DHT22;38261;54.090;13.382;2022-12-29T01:23:44;7.80;99.90
52321;DHT22;38261;54.090;13.382;2022-12-29T01:25:07;7.80;99.90
52321;DHT22;38261;54.090;13.382;2022-12-29T01:26:29;7.80;99.90
52321;DHT22;38261;54.090;13.382;2022-12-29T01:27:51;7.80;99.90
52321;DHT22;38261;54.090;13.382;2022-12-29T01:29:14;7.80;99.90
52321;DHT22;38261;54.090;13.382;2022-12-29T01:30:36;7.80;99.90
52321;DHT22;38261;54.090;13.382;2022-12-29T01:31:58;7.80;99.90
52321;DHT22;38261;54.090;13.382;2022-12-29T01:33:20;7.80;99.90
52321;DHT22;38261;54.090;13.382;2022-12-29T01:34:43;7.80;99.90
52321;DHT22;38261;54.090;13.382;2022-12-29T01:36:08;7.80;99.90
52321;DHT22;38261;54.090;13.382;2022-12-29T01:37:30;7.80;99.90
52321;DHT22;38261;54.090;13.382;2022-12-29T01:38:52;7.80;99.90
52321;DHT22;38261;54.090;13.382;2022-12-29T01:40:15;7.80;99.90
52321;DHT22;38261;54.090;13.382;2022-12-29T01:41:38;7.80;99.90
52321;DHT22;38261;54.090;13.382;2022-12-29T01:43:00;7.80;99.90
52321;DHT22;38261;54.090;13.382;2022-12-29T01:44:54;7.80;99.90
52321;DHT22;38261;54.090;13.382;2022-12-29T01:47:50;7.80;99.90
52321;DHT22;38261;54.090;13.382;2022-12-29T01:49:18;7.80;99.90
52321;DHT22;38261;54.090;13.382;2022-12-29T01:50:51;7.80;99.90
52321;DHT22;38261;54.090;13.382;2022-12-29T01:52:14;7.80;99.90
52321;DHT22;38261;54.090;13.382;2022-12-29T01:53:37;7.80;99.90
52321;DHT22;38261;54.090;13.382;2022-12-29T01:54:59;7.80;99.90
52321;DHT22;38261;54.090;13.382;2022-12-29T01:56:23;7.80;99.90
52321;DHT22;38261;54.090;13.382;2022-12-29T01:57:49;7.90;99.90
52321;DHT22;38261;54.090;13.382;2022-12-29T01:59:18;7.90;99.90
52321;DHT22;38261;54.090;13.382;2022-12-29T02:00:41;7.90;99.90
52321;DHT22;38261;54.090;13.382;2022-12-29T02:02:03;7.90;99.90
52321;DHT22;38261;54.090;13.382;2022-12-29T02:03:27;7.90;99.90
52321;DHT22;38261;54.090;13.382;2022-12-29T02:04:52;7.90;99.90
52321;DHT22;38261;54.090;13.382;2022-12-29T02:06:22;7.90;99.90
52321;DHT22;38261;54.090;13.382;2022-12-29T02:07:46;7.90;99.90
52321;DHT22;38261;54.090;13.382;2022-12-29T02:09:10;7.90;99.90
52321;DHT22;38261;54.090;13.382;2022-12-29T02:10:34;7.90;99.90
52321;DHT22;38261;54.090;13.382;2022-12-29T02:11:58;7.90;99.90
52321;DHT22;38261;54.090;13.382;2022-12-29T02:13:27;7.90;99.90
52321;DHT22;38261;54.090;13.382;2022-12-29T02:14:54;8.00;99.90
52321;DHT22;38261;54.090;13.382;2022-12-29T02:16:26;8.00;99.90
52321;DHT22;38261;54.090;13.382;2022-12-29T02:24:51;8.00;99.90
52321;DHT22;38261;54.090;13.382;2022-12-29T02:30:12;8.00;99.90
52321;DHT22;38261;54.090;13.382;2022-12-29T02:32:00;8.00;99.90
52321;DHT22;38261;54.090;13.382;2022-12-29T02:33:38;8.00;99.90
52321;DHT22;38261;54.090;13.382;2022-12-29T02:40:24;8.00;99.90
52321;DHT22;38261;54.090;13.382;2022-12-29T02:42:14;8.10;99.90
52321;DHT22;38261;54.090;13.382;2022-12-29T02:47:23;8.10;99.90
52321;DHT22;38261;54.090;13.382;2022-12-29T02:50:57;8.10;99.90
52321;DHT22;38261;54.090;13.382;2022-12-29T02:52:30;8.10;99.90
52321;DHT22;38261;54.090;13.382;2022-12-29T02:53:54;8.10;99.90
52321;DHT22;38261;54.090;13.382;2022-12-29T02:55:35;8.10;99.90
52321;DHT22;38261;54.090;13.382;2022-12-29T02:56:57;8.10;99.90
52321;DHT22;38261;54.090;13.382;2022-12-29T02:58:22;8.10;99.90
52321;DHT22;38261;54.090;13.382;2022-12-29T02:59:45;8.10;99.90
52321;DHT22;38261;54.090;13.382;2022-12-29T03:01:37;8.10;99.90
52321;DHT22;38261;54.090;13.382;2022-12-29T03:03:32;8.20;99.90
52321;DHT22;38261;54.090;13.382;2022-12-29T03:08:18;8.20;99.90
52321;DHT22;38261;54.090;13.382;2022-12-29T03:09:57;8.20;99.90
52321;DHT22;38261;54.090;13.382;2022-12-29T03:11:28;8.20;99.90
52321;DHT22;38261;54.090;13.382;2022-12-29T03:14:59;8.20;99.90
52321;DHT22;38261;54.090;13.382;2022-12-29T03:16:45;8.20;99.90
52321;DHT22;38261;54.090;13.382;2022-12-29T03:18:14;8.20;99.90
52321;DHT22;38261;54.090;13.382;2022-12-29T03:19:41;8.20;99.90
52321;DHT22;38261;54.090;13.382;2022-12-29T03:21:11;8.20;99.90
52321;DHT22;38261;54.090;13.382;2022-12-29T03:22:39;8.10;99.90
52321;DHT22;38261;54.090;13.382;2022-12-29T03:24:02;8.10;99.90
52321;DHT22;38261;54.090;13.382;2022-12-29T03:25:36;8.00;99.90
52321;DHT22;38261;54.090;13.382;2022-12-29T03:27:03;8.00;99.90
52321;DHT22;38261;54.090;13.382;2022-12-29T03:28:31;8.00;99.90
52321;DHT22;38261;54.090;13.382;2022-12-29T03:29:59;7.90;99.90
52321;DHT22;38261;54.090;13.382;2022-12-29T03:31:22;7.90;99.90
52321;DHT22;38261;54.090;13.382;2022-12-29T03:32:48;7.90;99.90
52321;DHT22;38261;54.090;13.382;2022-12-29T03:34:12;7.90;99.90
52321;DHT22;38261;54.090;13.382;2022-12-29T03:35:38;7.90;99.90
52321;DHT22;38261;54.090;13.382;2022-12-29T03:37:12;7.90;99.90
52321;DHT22;38261;54.090;13.382;2022-12-29T03:38:47;7.90;99.90
52321;DHT22;38261;54.090;13.382;2022-12-29T03:40:11;7.90;99.90
52321;DHT22;38261;54.090;13.382;2022-12-29T03:41:34;7.90;99.90
52321;DHT22;38261;54.090;13.382;2022-12-29T03:42:57;7.90;99.90
52321;DHT22;38261;54.090;13.382;2022-12-29T03:44:21;7.90;99.90
52321;DHT22;38261;54.090;13.382;2022-12-29T03:45:43;7.90;99.90
52321;DHT22;38261;54.090;13.382;2022-12-29T03:47:06;7.90;99.90
52321;DHT22;38261;54.090;13.382;2022-12-29T03:48:29;7.90;99.90
52321;DHT22;38261;54.090;13.382;2022-12-29T03:49:51;7.90;99.90
52321;DHT22;38261;54.090;13.382;2022-12-29T03:51:13;7.90;99.90
52321;DHT22;38261;54.090;13.382;2022-12-29T03:52:36;7.80;99.90
52321;DHT22;38261;54.090;13.382;2022-12-29T03:53:58;7.80;99.90
52321;DHT22;38261;54.090;13.382;2022-12-29T03:55:20;7.80;99.90
52321;DHT22;38261;54.090;13.382;2022-12-29T03:56:42;7.80;99.90
52321;DHT22;38261;54.090;13.382;2022-12-29T03:58:04;7.80;99.90
52321;DHT22;38261;54.090;13.382;2022-12-29T03:59:27;7.80;99.90
52321;DHT22;38261;54.090;13.382;2022-12-29T04:00:49;7.80;99.90
52321;DHT22;38261;54.090;13.382;2022-12-29T04:02:11;7.80;99.90
52321;DHT22;38261;54.090;13.382;2022-12-29T04:03:33;7.80;99.90
52321;DHT22;38261;54.090;13.382;2022-12-29T04:04:56;7.80;99.90
52321;DHT22;38261;54.090;13.382;2022-12-29T04:06:18;7.80;99.90
52321;DHT22;38261;54.090;13.382;2022-12-29T04:07:40;7.80;99.90
52321;DHT22;38261;54.090;13.382;2022-12-29T04:09:02;7.90;99.90
52321;DHT22;38261;54.090;13.382;2022-12-29T04:10:24;7.90;99.90
52321;DHT22;38261;54.090;13.382;2022-12-29T04:11:47;7.90;99.90
52321;DHT22;38261;54.090;13.382;2022-12-29T04:13:09;8.00;99.90
52321;DHT22;38261;54.090;13.382;2022-12-29T04:14:31;8.00;99.90
52321;DHT22;38261;54.090;13.382;2022-12-29T04:15:53;8.00;99.90
52321;DHT22;38261;54.090;13.382;2022-12-29T04:17:16;8.10;99.90
52321;DHT22;38261;54.090;13.382;2022-12-29T04:18:39;8.10;99.90
52321;DHT22;38261;54.090;13.382;2022-12-29T04:20:01;8.10;99.90
52321;DHT22;38261;54.090;13.382;2022-12-29T04:21:42;8.10;99.90
52321;DHT22;38261;54.090;13.382;2022-12-29T04:23:05;8.10;99.90
52321;DHT22;38261;54.090;13.382;2022-12-29T04:24:28;8.20;99.90
52321;DHT22;38261;54.090;13.382;2022-12-29T04:25:50;8.20;99.90
52321;DHT22;38261;54.090;13.382;2022-12-29T04:27:12;8.20;99.90
52321;DHT22;38261;54.090;13.382;2022-12-29T04:28:39;8.20;99.90
52321;DHT22;38261;54.090;13.382;2022-12-29T04:30:02;8.20;99.90
52321;DHT22;38261;54.090;13.382;2022-12-29T04:31:24;8.20;99.90
52321;DHT22;38261;54.090;13.382;2022-12-29T04:32:47;8.20;99.90
52321;DHT22;38261;54.090;13.382;2022-12-29T04:34:09;8.30;99.90
52321;DHT22;38261;54.090;13.382;2022-12-29T04:35:31;8.30;99.90
52321;DHT22;38261;54.090;13.382;2022-12-29T04:36:53;8.30;99.90
52321;DHT22;38261;54.090;13.382;2022-12-29T04:38:16;8.30;99.90
52321;DHT22;38261;54.090;13.382;2022-12-29T04:39:39;8.30;99.90
52321;DHT22;38261;54.090;13.382;2022-12-29T04:41:02;8.30;99.90
52321;DHT22;38261;54.090;13.382;2022-12-29T04:42:24;8.30;99.90
52321;DHT22;38261;54.090;13.382;2022-12-29T04:43:46;8.30;99.90
52321;DHT22;38261;54.090;13.382;2022-12-29T04:45:09;8.30;99.90
52321;DHT22;38261;54.090;13.382;2022-12-29T04:46:31;8.30;99.90
52321;DHT22;38261;54.090;13.382;2022-12-29T04:47:53;8.40;99.90
52321;DHT22;38261;54.090;13.382;2022-12-29T04:49:15;8.40;99.90
52321;DHT22;38261;54.090;13.382;2022-12-29T04:50:40;8.30;99.90
52321;DHT22;38261;54.090;13.382;2022-12-29T04:52:02;8.30;99.90
52321;DHT22;38261;54.090;13.382;2022-12-29T04:53:24;8.30;99.90
52321;DHT22;38261;54.090;13.382;2022-12-29T04:54:46;8.30;99.90
52321;DHT22;38261;54.090;13.382;2022-12-29T04:56:08;8.30;99.90
52321;DHT22;38261;54.090;13.382;2022-12-29T04:57:31;8.30;99.90
52321;DHT22;38261;54.090;13.382;2022-12-29T04:58:54;8.30;99.90
52321;DHT22;38261;54.090;13.382;2022-12-29T05:00:16;8.40;99.90
52321;DHT22;38261;54.090;13.382;2022-12-29T05:01:39;8.40;99.90
52321;DHT22;38261;54.090;13.382;2022-12-29T05:03:01;8.40;99.90
52321;DHT22;38261;54.090;13.382;2022-12-29T05:04:24;8.40;99.90
52321;DHT22;38261;54.090;13.382;2022-12-29T05:05:46;8.40;99.90
52321;DHT22;38261;54.090;13.382;2022-12-29T05:07:09;8.40;99.90
52321;DHT22;38261;54.090;13.382;2022-12-29T05:08:31;8.50;99.90
52321;DHT22;38261;54.090;13.382;2022-12-29T05:09:54;8.50;99.90
52321;DHT22;38261;54.090;13.382;2022-12-29T05:11:16;8.50;99.90
52321;DHT22;38261;54.090;13.382;2022-12-29T05:12:38;8.50;99.90
52321;DHT22;38261;54.090;13.382;2022-12-29T05:14:01;8.50;99.90
52321;DHT22;38261;54.090;13.382;2022-12-29T05:15:23;8.50;99.90
52321;DHT22;38261;54.090;13.382;2022-12-29T05:16:45;8.50;99.90
52321;DHT22;38261;54.090;13.382;2022-12-29T05:18:07;8.50;99.90
52321;DHT22;38261;54.090;13.382;2022-12-29T05:19:29;8.50;99.90
52321;DHT22;38261;54.090;13.382;2022-12-29T05:20:52;8.60;99.90
52321;DHT22;38261;54.090;13.382;2022-12-29T05:22:14;8.60;99.90
52321;DHT22;38261;54.090;13.382;2022-12-29T05:23:36;8.60;99.90
52321;DHT22;38261;54.090;13.382;2022-12-29T05:25:02;8.60;99.90
52321;DHT22;38261;54.090;13.382;2022-12-29T05:26:24;8.60;99.90
52321;DHT22;38261;54.090;13.382;2022-12-29T05:27:47;8.60;99.90
52321;DHT22;38261;54.090;13.382;2022-12-29T05:29:09;8.60;99.90
52321;DHT22;38261;54.090;13.382;2022-12-29T05:30:31;8.60;99.90
52321;DHT22;38261;54.090;13.382;2022-12-29T05:31:54;8.60;99.90
52321;DHT22;38261;54.090;13.382;2022-12-29T05:33:19;8.50;99.90
52321;DHT22;38261;54.090;13.382;2022-12-29T05:34:41;8.50;99.90
52321;DHT22;38261;54.090;13.382;2022-12-29T05:36:05;8.50;99.90
52321;DHT22;38261;54.090;13.382;2022-12-29T05:37:28;8.50;99.90
52321;DHT22;38261;54.090;13.382;2022-12-29T05:38:50;8.50;99.90
52321;DHT22;38261;54.090;13.382;2022-12-29T05:40:12;8.50;99.90
52321;DHT22;38261;54.090;13.382;2022-12-29T05:41:35;8.50;99.90
52321;DHT22;38261;54.090;13.382;2022-12-29T05:42:59;8.50;99.90
52321;DHT22;38261;54.090;13.382;2022-12-29T05:44:22;8.50;99.90
52321;DHT22;38261;54.090;13.382;2022-12-29T05:45:44;8.50;99.90
52321;DHT22;38261;54.090;13.382;2022-12-29T05:47:06;8.50;99.90
52321;DHT22;38261;54.090;13.382;2022-12-29T05:48:28;8.50;99.90
52321;DHT22;38261;54.090;13.382;2022-12-29T05:49:58;8.50;99.90
52321;DHT22;38261;54.090;13.382;2022-12-29T05:51:21;8.50;99.90
52321;DHT22;38261;54.090;13.382;2022-12-29T05:52:43;8.50;99.90
52321;DHT22;38261;54.090;13.382;2022-12-29T05:54:06;8.50;99.90
52321;DHT22;38261;54.090;13.382;2022-12-29T05:55:28;8.60;99.90
52321;DHT22;38261;54.090;13.382;2022-12-29T05:56:50;8.60;99.90
52321;DHT22;38261;54.090;13.382;2022-12-29T05:58:12;8.60;99.90
52321;DHT22;38261;54.090;13.382;2022-12-29T05:59:35;8.60;99.90
52321;DHT22;38261;54.090;13.382;2022-12-29T06:00:57;8.60;99.90
52321;DHT22;38261;54.090;13.382;2022-12-29T06:02:19;8.70;99.90
52321;DHT22;38261;54.090;13.382;2022-12-29T06:03:42;8.70;99.90
52321;DHT22;38261;54.090;13.382;2022-12-29T06:05:09;8.70;99.90
52321;DHT22;38261;54.090;13.382;2022-12-29T06:06:31;8.70;99.90
52321;DHT22;38261;54.090;13.382;2022-12-29T06:07:54;8.70;99.90
52321;DHT22;38261;54.090;13.382;2022-12-29T06:09:16;8.70;99.90
52321;DHT22;38261;54.090;13.382;2022-12-29T06:10:38;8.70;99.90
52321;DHT22;38261;54.090;13.382;2022-12-29T06:12:00;8.70;99.90
52321;DHT22;38261;54.090;13.382;2022-12-29T06:13:22;8.70;99.90
52321;DHT22;38261;54.090;13.382;2022-12-29T06:14:44;8.70;99.90
52321;DHT22;38261;54.090;13.382;2022-12-29T06:16:06;8.70;99.90
52321;DHT22;38261;54.090;13.382;2022-12-29T06:17:29;8.70;99.90
52321;DHT22;38261;54.090;13.382;2022-12-29T06:18:51;8.70;99.90
52321;DHT22;38261;54.090;13.382;2022-12-29T06:20:13;8.70;99.90
52321;DHT22;38261;54.090;13.382;2022-12-29T06:21:35;8.80;99.90
52321;DHT22;38261;54.090;13.382;2022-12-29T06:22:59;8.70;99.90
52321;DHT22;38261;54.090;13.382;2022-12-29T06:24:21;8.70;99.90
52321;DHT22;38261;54.090;13.382;2022-12-29T06:25:43;8.70;99.90
52321;DHT22;38261;54.090;13.382;2022-12-29T06:27:05;8.80;99.90
52321;DHT22;38261;54.090;13.382;2022-12-29T06:28:28;8.80;99.90
52321;DHT22;38261;54.090;13.382;2022-12-29T06:29:50;8.80;99.90
52321;DHT22;38261;54.090;13.382;2022-12-29T06:31:12;8.80;99.90
52321;DHT22;38261;54.090;13.382;2022-12-29T06:32:35;8.80;99.90
52321;DHT22;38261;54.090;13.382;2022-12-29T06:33:57;8.80;99.90
52321;DHT22;38261;54.090;13.382;2022-12-29T06:35:24;8.80;99.90
52321;DHT22;38261;54.090;13.382;2022-12-29T06:36:46;8.80;99.90
52321;DHT22;38261;54.090;13.382;2022-12-29T06:38:09;8.80;99.90
52321;DHT22;38261;54.090;13.382;2022-12-29T06:39:31;8.80;99.90
52321;DHT22;38261;54.090;13.382;2022-12-29T06:40:53;8.80;99.90
52321;DHT22;38261;54.090;13.382;2022-12-29T06:42:15;8.70;99.90
52321;DHT22;38261;54.090;13.382;2022-12-29T06:43:37;8.70;99.90
52321;DHT22;38261;54.090;13.382;2022-12-29T06:45:00;8.70;99.90
52321;DHT22;38261;54.090;13.382;2022-12-29T06:46:22;8.70;99.90
52321;DHT22;38261;54.090;13.382;2022-12-29T06:47:45;8.70;99.90
52321;DHT22;38261;54.090;13.382;2022-12-29T06:49:07;8.70;99.90
52321;DHT22;38261;54.090;13.382;2022-12-29T06:50:29;8.80;99.90
52321;DHT22;38261;54.090;13.382;2022-12-29T06:51:51;8.80;99.90
52321;DHT22;38261;54.090;13.382;2022-12-29T06:53:13;8.80;99.90
52321;DHT22;38261;54.090;13.382;2022-12-29T06:54:35;8.80;99.90
52321;DHT22;38261;54.090;13.382;2022-12-29T06:55:57;8.80;99.90
52321;DHT22;38261;54.090;13.382;2022-12-29T06:57:20;8.80;99.90
52321;DHT22;38261;54.090;13.382;2022-12-29T06:58:42;8.80;99.90
52321;DHT22;38261;54.090;13.382;2022-12-29T07:00:05;8.80;99.90
52321;DHT22;38261;54.090;13.382;2022-12-29T07:01:27;8.80;99.90
52321;DHT22;38261;54.090;13.382;2022-12-29T07:02:50;8.80;99.90
52321;DHT22;38261;54.090;13.382;2022-12-29T07:04:13;8.80;99.90
52321;DHT22;38261;54.090;13.382;2022-12-29T07:05:35;8.90;99.90
52321;DHT22;38261;54.090;13.382;2022-12-29T07:06:57;8.90;99.90
52321;DHT22;38261;54.090;13.382;2022-12-29T07:08:19;8.90;99.90
52321;DHT22;38261;54.090;13.382;2022-12-29T07:09:41;9.00;99.90
52321;DHT22;38261;54.090;13.382;2022-12-29T07:11:04;8.90;99.90
52321;DHT22;38261;54.090;13.382;2022-12-29T07:12:26;9.00;99.90
52321;DHT22;38261;54.090;13.382;2022-12-29T07:13:49;9.00;99.90
52321;DHT22;38261;54.090;13.382;2022-12-29T07:15:11;9.00;99.90
52321;DHT22;38261;54.090;13.382;2022-12-29T07:16:34;9.00;99.90
52321;DHT22;38261;54.090;13.382;2022-12-29T07:17:57;9.00;99.90
52321;DHT22;38261;54.090;13.382;2022-12-29T07:19:19;9.00;99.90
52321;DHT22;38261;54.090;13.382;2022-12-29T07:20:41;9.10;99.90
52321;DHT22;38261;54.090;13.382;2022-12-29T07:22:03;9.10;99.90
52321;DHT22;38261;54.090;13.382;2022-12-29T07:23:25;9.10;99.90
52321;DHT22;38261;54.090;13.382;2022-12-29T07:24:47;9.10;99.90
52321;DHT22;38261;54.090;13.382;2022-12-29T07:26:12;9.10;99.90
52321;DHT22;38261;54.090;13.382;2022-12-29T07:27:35;9.10;99.90
52321;DHT22;38261;54.090;13.382;2022-12-29T07:28:57;9.10;99.90
52321;DHT22;38261;54.090;13.382;2022-12-29T07:30:19;9.10;99.90
52321;DHT22;38261;54.090;13.382;2022-12-29T07:31:41;9.10;99.90
52321;DHT22;38261;54.090;13.382;2022-12-29T07:33:03;9.10;99.90
52321;DHT22;38261;54.090;13.382;2022-12-29T07:34:25;9.10;99.90
52321;DHT22;38261;54.090;13.382;2022-12-29T07:35:48;9.10;99.90
52321;DHT22;38261;54.090;13.382;2022-12-29T07:37:10;9.10;99.90
52321;DHT22;38261;54.090;13.382;2022-12-29T07:38:32;9.10;99.90
52321;DHT22;38261;54.090;13.382;2022-12-29T07:39:54;9.10;99.90
52321;DHT22;38261;54.090;13.382;2022-12-29T07:41:16;9.10;99.90
52321;DHT22;38261;54.090;13.382;2022-12-29T07:42:38;9.10;99.90
52321;DHT22;38261;54.090;13.382;2022-12-29T07:44:01;9.10;99.90
52321;DHT22;38261;54.090;13.382;2022-12-29T07:45:23;9.10;99.90
52321;DHT22;38261;54.090;13.382;2022-12-29T07:46:45;9.10;99.90
52321;DHT22;38261;54.090;13.382;2022-12-29T07:48:17;9.10;99.90
52321;DHT22;38261;54.090;13.382;2022-12-29T07:49:39;9.10;99.90
52321;DHT22;38261;54.090;13.382;2022-12-29T07:51:02;9.10;99.90
52321;DHT22;38261;54.090;13.382;2022-12-29T07:52:24;9.10;99.90
52321;DHT22;38261;54.090;13.382;2022-12-29T07:53:46;9.10;99.90
52321;DHT22;38261;54.090;13.382;2022-12-29T07:55:09;9.10;99.90
52321;DHT22;38261;54.090;13.382;2022-12-29T07:56:31;9.10;99.90
52321;DHT22;38261;54.090;13.382;2022-12-29T07:57:54;9.10;99.90
52321;DHT22;38261;54.090;13.382;2022-12-29T07:59:16;9.10;99.90
52321;DHT22;38261;54.090;13.382;2022-12-29T08:00:38;9.10;99.90
52321;DHT22;38261;54.090;13.382;2022-12-29T08:02:01;9.10;99.90
52321;DHT22;38261;54.090;13.382;2022-12-29T08:03:24;9.10;99.90
52321;DHT22;38261;54.090;13.382;2022-12-29T08:04:47;9.10;99.90
52321;DHT22;38261;54.090;13.382;2022-12-29T08:06:10;9.10;99.90
52321;DHT22;38261;54.090;13.382;2022-12-29T08:07:33;9.10;99.90
52321;DHT22;38261;54.090;13.382;2022-12-29T08:08:55;9.10;99.90
52321;DHT22;38261;54.090;13.382;2022-12-29T08:10:18;9.10;99.90
52321;DHT22;38261;54.090;13.382;2022-12-29T08:11:40;9.10;99.90
52321;DHT22;38261;54.090;13.382;2022-12-29T08:13:02;9.00;99.90
52321;DHT22;38261;54.090;13.382;2022-12-29T08:14:25;9.00;99.90
52321;DHT22;38261;54.090;13.382;2022-12-29T08:15:47;9.00;99.90
52321;DHT22;38261;54.090;13.382;2022-12-29T08:17:09;9.10;99.90
52321;DHT22;38261;54.090;13.382;2022-12-29T08:18:31;9.10;99.90
52321;DHT22;38261;54.090;13.382;2022-12-29T08:19:54;9.10;99.90
52321;DHT22;38261;54.090;13.382;2022-12-29T08:21:16;9.10;99.90
52321;DHT22;38261;54.090;13.382;2022-12-29T08:22:38;9.20;99.90
52321;DHT22;38261;54.090;13.382;2022-12-29T08:24:00;9.20;99.90
52321;DHT22;38261;54.090;13.382;2022-12-29T08:25:22;9.20;99.90
52321;DHT22;38261;54.090;13.382;2022-12-29T08:26:45;9.20;99.90
52321;DHT22;38261;54.090;13.382;2022-12-29T08:28:07;9.30;99.90
52321;DHT22;38261;54.090;13.382;2022-12-29T08:29:29;9.30;99.90
52321;DHT22;38261;54.090;13.382;2022-12-29T08:30:51;9.30;99.90
52321;DHT22;38261;54.090;13.382;2022-12-29T08:32:14;9.40;99.90
52321;DHT22;38261;54.090;13.382;2022-12-29T08:33:36;9.40;99.90
52321;DHT22;38261;54.090;13.382;2022-12-29T08:34:58;9.40;99.90
52321;DHT22;38261;54.090;13.382;2022-12-29T08:36:20;9.40;99.90
52321;DHT22;38261;54.090;13.382;2022-12-29T08:37:42;9.50;99.90
52321;DHT22;38261;54.090;13.382;2022-12-29T08:39:05;9.50;99.90
52321;DHT22;38261;54.090;13.382;2022-12-29T08:40:27;9.50;99.90
52321;DHT22;38261;54.090;13.382;2022-12-29T08:41:49;9.50;99.90
52321;DHT22;38261;54.090;13.382;2022-12-29T08:43:11;9.50;99.90
52321;DHT22;38261;54.090;13.382;2022-12-29T08:44:37;9.50;99.90
52321;DHT22;38261;54.090;13.382;2022-12-29T08:46:00;9.60;99.90
52321;DHT22;38261;54.090;13.382;2022-12-29T08:47:22;9.60;99.90
52321;DHT22;38261;54.090;13.382;2022-12-29T08:48:44;9.70;99.90
52321;DHT22;38261;54.090;13.382;2022-12-29T08:50:07;9.70;99.90
52321;DHT22;38261;54.090;13.382;2022-12-29T08:51:29;9.70;99.90
52321;DHT22;38261;54.090;13.382;2022-12-29T08:52:51;9.80;99.90
52321;DHT22;38261;54.090;13.382;2022-12-29T08:54:13;9.80;99.90
52321;DHT22;38261;54.090;13.382;2022-12-29T08:55:36;9.80;99.90
52321;DHT22;38261;54.090;13.382;2022-12-29T08:56:58;9.80;99.90
52321;DHT22;38261;54.090;13.382;2022-12-29T08:58:20;9.80;99.90
52321;DHT22;38261;54.090;13.382;2022-12-29T08:59:42;9.80;99.90
52321;DHT22;38261;54.090;13.382;2022-12-29T09:01:04;9.80;99.90
52321;DHT22;38261;54.090;13.382;2022-12-29T09:02:26;9.80;99.90
52321;DHT22;38261;54.090;13.382;2022-12-29T09:03:49;9.80;99.90
52321;DHT22;38261;54.090;13.382;2022-12-29T09:05:31;9.80;99.90
52321;DHT22;38261;54.090;13.382;2022-12-29T09:06:53;9.80;99.90
52321;DHT22;38261;54.090;13.382;2022-12-29T09:08:16;9.80;99.90
52321;DHT22;38261;54.090;13.382;2022-12-29T09:09:46;9.80;99.90
52321;DHT22;38261;54.090;13.382;2022-12-29T09:11:21;9.80;99.90
52321;DHT22;38261;54.090;13.382;2022-12-29T09:12:43;9.80;99.90
52321;DHT22;38261;54.090;13.382;2022-12-29T09:14:05;9.80;99.90
52321;DHT22;38261;54.090;13.382;2022-12-29T09:15:27;9.80;99.90
52321;DHT22;38261;54.090;13.382;2022-12-29T09:16:54;9.80;99.90
52321;DHT22;38261;54.090;13.382;2022-12-29T09:18:35;9.90;99.90
52321;DHT22;38261;54.090;13.382;2022-12-29T09:19:57;9.90;99.90
52321;DHT22;38261;54.090;13.382;2022-12-29T09:21:19;10.00;99.90
52321;DHT22;38261;54.090;13.382;2022-12-29T09:22:42;10.10;99.90
52321;DHT22;38261;54.090;13.382;2022-12-29T09:24:04;10.10;99.90
52321;DHT22;38261;54.090;13.382;2022-12-29T09:25:27;10.20;99.90